Time;durP1;ratioP1;P1;durP2;ratioP2;P2;SDS_P1;SDS_P2;PMS_P1;PMS_P2;Temp;Humidity;BMP_temperature;BMP_pressure;BME280_temperature;BME280_humidity;BME280_pressure;Samples;Min_cycle;Max_cycle;Signal;HPM_P1;HPM_P2
2023/07/20 00:00:40;;;;;;;3.35;2.00;;;20.10;1.00;;;;;;7388237;19;20015;-65
2023/07/20 00:03:16;;;;;;;5.03;1.98;;;20.20;1.00;;;;;;7390465;19;20015;-65
2023/07/20 00:05:49;;;;;;;2.60;1.83;;;20.20;1.00;;;;;;7389118;19;20014;-64
2023/07/20 00:08:20;;;;;;;5.38;2.08;;;20.20;1.00;;;;;;7388763;19;20086;-65
2023/07/20 00:10:49;;;;;;;3.05;1.80;;;20.10;1.00;;;;;;7387668;19;20491;-65
2023/07/20 00:13:20;;;;;;;4.28;2.22;;;20.10;1.00;;;;;;7389964;19;20460;-65
2023/07/20 00:15:51;;;;;;;3.45;2.20;;;20.10;1.00;;;;;;7387806;19;20078;-66
2023/07/20 00:18:21;;;;;;;3.00;2.00;;;20.10;1.00;;;;;;7388611;19;20034;-66
2023/07/20 00:20:53;;;;;;;2.83;1.70;;;20.00;1.00;;;;;;7386720;19;20018;-66
2023/07/20 00:23:23;;;;;;;3.90;1.60;;;20.00;1.00;;;;;;7389739;19;20015;-66
2023/07/20 00:25:54;;;;;;;4.82;1.85;;;19.90;1.00;;;;;;7388660;19;20006;-66
2023/07/20 00:28:24;;;;;;;3.70;1.80;;;19.90;1.00;;;;;;7388061;19;20011;-65
2023/07/20 00:30:53;;;;;;;2.42;1.77;;;19.80;1.00;;;;;;7386754;19;20018;-66
2023/07/20 00:33:23;;;;;;;3.70;1.92;;;19.90;1.00;;;;;;7388753;19;20011;-66
2023/07/20 00:35:56;;;;;;;2.78;2.00;;;19.80;1.00;;;;;;7386998;19;20019;-66
2023/07/20 00:38:26;;;;;;;2.72;1.63;;;19.70;1.00;;;;;;7393299;19;20030;-65
2023/07/20 00:40:56;;;;;;;2.25;1.75;;;19.70;1.00;;;;;;7386658;19;20028;-65
2023/07/20 00:43:26;;;;;;;3.88;1.90;;;19.60;1.00;;;;;;7391606;19;20015;-66
2023/07/20 00:45:56;;;;;;;2.90;1.85;;;19.50;1.00;;;;;;7395495;19;20019;-66
2023/07/20 00:48:26;;;;;;;6.10;2.25;;;19.40;1.00;;;;;;7399639;19;20016;-66
2023/07/20 00:51:00;;;;;;;10.05;2.10;;;19.40;1.00;;;;;;7393545;19;20054;-64
2023/07/20 00:53:31;;;;;;;2.47;1.80;;;19.40;1.00;;;;;;7398906;19;20034;-67
2023/07/20 00:56:01;;;;;;;4.18;1.75;;;19.40;1.00;;;;;;7393959;19;20501;-65
2023/07/20 00:58:31;;;;;;;3.33;1.70;;;19.30;1.00;;;;;;7399225;19;20015;-65
2023/07/20 01:01:01;;;;;;;7.20;2.50;;;19.20;1.00;;;;;;7393409;19;20027;-65
2023/07/20 01:03:31;;;;;;;4.10;2.00;;;19.20;1.00;;;;;;7398838;19;20027;-66
2023/07/20 01:06:14;;;;;;;2.85;1.80;;;19.10;1.00;;;;;;7394499;19;20011;-65
2023/07/20 01:08:52;;;;;;;2.70;1.98;;;19.10;1.00;;;;;;7399183;19;20099;-66
2023/07/20 01:11:38;;;;;;;3.15;1.50;;;19.10;1.00;;;;;;7390828;19;20035;-65
2023/07/20 01:14:09;;;;;;;5.47;1.60;;;19.00;1.00;;;;;;7396921;19;20019;-65
2023/07/20 01:16:39;;;;;;;2.97;1.58;;;19.00;1.00;;;;;;7393284;19;20022;-65
2023/07/20 01:19:09;;;;;;;4.20;1.52;;;18.90;1.00;;;;;;7394096;19;20468;-65
2023/07/20 01:21:49;;;;;;;2.70;1.77;;;19.00;1.00;;;;;;7391982;19;20038;-65
2023/07/20 01:24:44;;;;;;;3.47;1.63;;;18.90;1.00;;;;;;7396592;19;20490;-65
2023/07/20 01:27:39;;;;;;;4.45;1.80;;;18.90;1.00;;;;;;7395768;19;20019;-65
2023/07/20 01:30:35;;;;;;;4.32;1.75;;;18.80;1.00;;;;;;7392679;19;20046;-65
2023/07/20 01:33:09;;;;;;;3.05;1.80;;;18.80;1.00;;;;;;7395843;19;20018;-65
2023/07/20 01:35:41;;;;;;;4.40;1.90;;;18.80;1.00;;;;;;7392656;19;20022;-65
2023/07/20 01:38:11;;;;;;;3.45;1.63;;;18.80;1.00;;;;;;7394969;19;20019;-65
2023/07/20 01:40:43;;;;;;;4.03;1.60;;;18.70;1.00;;;;;;7392365;19;20042;-64
2023/07/20 01:43:14;;;;;;;3.92;1.77;;;18.50;1.00;;;;;;7395352;19;20006;-64
2023/07/20 01:45:44;;;;;;;3.47;1.73;;;18.50;1.00;;;;;;7394979;19;20019;-66
2023/07/20 01:48:16;;;;;;;3.92;2.15;;;18.50;1.00;;;;;;7395661;19;20508;-65
2023/07/20 01:50:46;;;;;;;5.05;1.73;;;18.30;1.00;;;;;;7392832;19;20011;-65
2023/07/20 01:53:16;;;;;;;5.20;1.75;;;18.40;1.00;;;;;;7395156;19;20458;-65
2023/07/20 01:55:46;;;;;;;3.67;1.90;;;18.30;1.00;;;;;;7391441;19;20466;-66
2023/07/20 01:58:16;;;;;;;3.15;1.95;;;18.30;1.00;;;;;;7395372;19;20014;-65
2023/07/20 02:00:46;;;;;;;2.80;2.00;;;18.20;1.00;;;;;;7391374;19;20015;-65
2023/07/20 02:03:21;;;;;;;3.28;1.42;;;18.20;1.00;;;;;;7394451;19;20014;-65
2023/07/20 02:05:51;;;;;;;2.83;1.80;;;18.20;1.00;;;;;;7392831;19;20018;-65
2023/07/20 02:08:21;;;;;;;5.00;1.90;;;18.20;1.00;;;;;;7394880;19;20418;-65
2023/07/20 02:10:52;;;;;;;3.53;1.83;;;18.10;1.00;;;;;;7391548;19;20553;-65
2023/07/20 02:13:21;;;;;;;2.83;1.75;;;18.00;1.00;;;;;;7391996;19;20024;-65
2023/07/20 02:15:51;;;;;;;4.90;1.75;;;18.10;1.00;;;;;;7392399;19;20038;-65
2023/07/20 02:18:24;;;;;;;3.85;1.80;;;18.10;1.00;;;;;;7393929;19;20021;-65
2023/07/20 02:20:55;;;;;;;3.97;1.90;;;18.10;1.00;;;;;;7391627;19;20018;-65
2023/07/20 02:23:25;;;;;;;3.70;1.92;;;18.00;1.00;;;;;;7392188;19;20090;-65
2023/07/20 02:25:55;;;;;;;3.72;1.80;;;18.00;1.00;;;;;;7392110;19;20042;-65
2023/07/20 02:28:26;;;;;;;4.03;1.65;;;17.90;1.00;;;;;;7394447;19;20336;-65
2023/07/20 02:30:55;;;;;;;4.63;1.83;;;17.90;1.00;;;;;;7390133;19;20014;-65
2023/07/20 02:33:28;;;;;;;7.03;1.83;;;17.90;1.00;;;;;;7392468;19;20176;-66
2023/07/20 02:35:58;;;;;;;2.53;1.73;;;17.90;1.00;;;;;;7391680;19;20010;-65
2023/07/20 02:38:28;;;;;;;3.50;1.77;;;17.90;1.00;;;;;;7393304;19;20022;-65
2023/07/20 02:40:58;;;;;;;4.45;1.77;;;17.80;1.00;;;;;;7389830;19;20019;-65
2023/07/20 02:43:28;;;;;;;4.20;1.95;;;17.80;1.00;;;;;;7392063;19;20074;-65
2023/07/20 02:45:58;;;;;;;3.90;1.83;;;17.80;1.00;;;;;;7393171;19;20470;-65
2023/07/20 02:48:30;;;;;;;2.83;1.92;;;17.80;1.00;;;;;;7392690;19;20104;-65
2023/07/20 02:51:00;;;;;;;3.05;2.10;;;17.70;1.00;;;;;;7389565;19;20014;-66
2023/07/20 02:53:30;;;;;;;4.18;1.85;;;17.80;1.00;;;;;;7391802;19;20023;-65
2023/07/20 02:56:00;;;;;;;4.93;2.00;;;17.70;1.00;;;;;;7390783;19;20482;-65
2023/07/20 02:58:30;;;;;;;4.70;2.35;;;17.70;1.00;;;;;;7392398;19;20082;-65
2023/07/20 03:01:00;;;;;;;5.95;2.30;;;17.70;1.00;;;;;;7390013;19;20052;-65
2023/07/20 03:03:38;;;;;;;4.95;2.40;;;17.70;1.00;;;;;;7390748;19;20018;-65
2023/07/20 03:06:08;;;;;;;3.90;2.17;;;17.70;1.00;;;;;;7391068;19;20069;-65
2023/07/20 03:08:38;;;;;;;3.83;2.03;;;17.70;1.00;;;;;;7390254;19;20013;-65
2023/07/20 03:11:08;;;;;;;4.60;2.10;;;17.60;1.00;;;;;;7390641;19;20479;-65
2023/07/20 03:13:38;;;;;;;3.65;2.15;;;17.60;1.00;;;;;;7393734;19;20006;-65
2023/07/20 03:16:10;;;;;;;2.67;1.95;;;17.50;1.00;;;;;;7390703;19;20027;-65
2023/07/20 03:18:43;;;;;;;4.22;2.03;;;17.40;1.00;;;;;;7390698;19;20015;-65
2023/07/20 03:21:13;;;;;;;2.80;2.10;;;17.30;1.00;;;;;;7389317;19;20056;-65
2023/07/20 03:23:44;;;;;;;3.65;1.98;;;17.20;1.00;;;;;;7393428;19;20046;-65
2023/07/20 03:26:14;;;;;;;3.88;2.47;;;17.30;1.00;;;;;;7389565;19;20011;-65
2023/07/20 03:28:44;;;;;;;3.58;2.13;;;17.40;1.00;;;;;;7390413;19;20332;-66
2023/07/20 03:31:14;;;;;;;3.50;2.15;;;17.40;1.00;;;;;;7388518;19;20074;-65
2023/07/20 03:33:47;;;;;;;5.38;2.05;;;17.40;1.00;;;;;;7390119;19;20003;-65
2023/07/20 03:36:17;;;;;;;6.63;2.20;;;17.40;1.00;;;;;;7389640;19;20018;-65
2023/07/20 03:38:47;;;;;;;4.43;2.00;;;17.40;1.00;;;;;;7389079;19;20358;-65
2023/07/20 03:41:17;;;;;;;3.47;2.13;;;17.40;1.00;;;;;;7388529;19;20031;-65
2023/07/20 03:43:47;;;;;;;4.43;2.10;;;17.40;1.00;;;;;;7389296;19;20486;-65
2023/07/20 03:46:17;;;;;;;4.35;1.90;;;17.40;1.00;;;;;;7391813;19;20018;-65
2023/07/20 03:48:49;;;;;;;4.22;2.00;;;17.40;1.00;;;;;;7389570;19;20466;-65
2023/07/20 03:51:19;;;;;;;5.35;2.58;;;17.50;1.00;;;;;;7387469;19;20101;-65
2023/07/20 03:53:49;;;;;;;3.88;2.55;;;17.60;1.00;;;;;;7389340;19;20092;-65
2023/07/20 03:56:19;;;;;;;4.40;2.38;;;17.50;1.00;;;;;;7388525;19;20031;-65
2023/07/20 03:58:49;;;;;;;5.38;2.53;;;17.70;1.00;;;;;;7387362;19;20011;-65
2023/07/20 04:01:19;;;;;;;3.53;2.13;;;17.90;1.00;;;;;;7387322;19;20014;-65
2023/07/20 04:03:52;;;;;;;5.55;2.25;;;18.20;1.00;;;;;;7388886;19;20078;-65
2023/07/20 04:06:22;;;;;;;3.50;2.00;;;18.60;1.00;;;;;;7388334;19;20022;-64
2023/07/20 04:08:52;;;;;;;3.80;2.10;;;18.60;1.00;;;;;;7388736;19;20413;-64
2023/07/20 04:11:22;;;;;;;3.55;1.95;;;19.10;1.00;;;;;;7387376;19;20031;-64
2023/07/20 04:13:52;;;;;;;4.28;2.08;;;19.30;1.00;;;;;;7387688;19;20018;-65
2023/07/20 04:16:22;;;;;;;4.30;1.90;;;19.70;1.00;;;;;;7386747;19;20725;-64
2023/07/20 04:18:57;;;;;;;3.92;1.60;;;20.10;1.00;;;;;;7385869;19;20022;-64
2023/07/20 04:21:28;;;;;;;;;;;20.20;1.00;;;;;;7387459;19;20038;-64
2023/07/20 04:23:58;;;;;;;6.85;2.08;;;20.70;1.00;;;;;;7388382;19;19907;-65
2023/07/20 04:26:28;;;;;;;3.83;2.17;;;21.00;1.00;;;;;;7388468;19;20018;-64
2023/07/20 04:28:59;;;;;;;5.30;2.13;;;21.40;1.00;;;;;;7387492;19;20817;-66
2023/07/20 04:31:30;;;;;;;4.32;2.05;;;21.70;1.00;;;;;;7385221;19;20014;-65
2023/07/20 04:34:02;;;;;;;4.75;2.15;;;21.60;1.00;;;;;;7388528;19;20100;-66
2023/07/20 04:36:32;;;;;;;3.08;1.70;;;22.10;1.00;;;;;;7388422;19;20361;-66
2023/07/20 04:39:03;;;;;;;3.85;1.92;;;22.70;1.00;;;;;;7386025;19;20074;-65
2023/07/20 04:41:36;;;;;;;4.20;2.28;;;22.20;1.00;;;;;;7386764;19;20049;-65
2023/07/20 04:44:06;;;;;;;3.03;1.95;;;22.60;1.00;;;;;;7387811;19;20010;-65
2023/07/20 04:46:36;;;;;;;2.58;1.90;;;22.20;1.00;;;;;;7391270;19;20090;-65
2023/07/20 04:49:09;;;;;;;3.45;2.13;;;22.50;1.00;;;;;;7387283;19;20033;-65
2023/07/20 04:51:39;;;;;;;3.35;2.03;;;22.90;1.00;;;;;;7385416;19;20015;-66
2023/07/20 04:54:09;;;;;;;4.88;2.20;;;22.40;1.00;;;;;;7387494;19;20015;-66
2023/07/20 04:56:39;;;;;;;4.65;1.85;;;23.50;1.00;;;;;;7387933;19;20011;-65
2023/07/20 04:59:09;;;;;;;5.78;2.03;;;23.60;1.00;;;;;;7385390;19;20046;-66
2023/07/20 05:01:39;;;;;;;3.67;1.92;;;23.70;1.00;;;;;;7385966;19;20478;-66
2023/07/20 05:04:11;;;;;;;3.05;1.85;;;23.80;1.00;;;;;;7387691;19;20398;-66
2023/07/20 05:06:46;;;;;;;3.70;2.00;;;24.20;1.00;;;;;;7387280;19;20095;-66
2023/07/20 05:09:16;;;;;;;4.60;1.77;;;24.50;1.00;;;;;;7386010;19;20503;-66
2023/07/20 05:11:47;;;;;;;3.33;1.73;;;24.30;1.00;;;;;;7387071;19;20383;-65
2023/07/20 05:14:17;;;;;;;8.27;1.92;;;24.60;1.00;;;;;;7386490;19;20040;-67
2023/07/20 05:16:47;;;;;;;3.45;1.98;;;24.70;1.00;;;;;;7385473;19;20011;-65
2023/07/20 05:19:20;;;;;;;5.38;1.90;;;25.30;1.00;;;;;;7384587;19;20011;-65
2023/07/20 05:21:50;;;;;;;3.13;2.08;;;25.50;1.00;;;;;;7386066;19;20046;-65
2023/07/20 05:24:19;;;;;;;4.70;2.25;;;24.90;1.00;;;;;;7386680;19;20015;-65
2023/07/20 05:26:50;;;;;;;3.28;1.95;;;24.30;1.00;;;;;;7386387;19;20491;-66
2023/07/20 05:29:20;;;;;;;3.92;1.92;;;22.30;1.00;;;;;;7385251;19;20015;-66
2023/07/20 05:31:50;;;;;;;7.10;1.88;;;21.70;1.00;;;;;;7392186;19;20027;-65
2023/07/20 05:34:23;;;;;;;4.75;1.92;;;22.90;1.00;;;;;;7392186;19;20021;-65
2023/07/20 05:36:53;;;;;;;4.05;2.15;;;22.30;1.00;;;;;;7393828;19;20092;-65
2023/07/20 05:39:38;;;;;;;6.50;2.20;;;23.60;1.00;;;;;;7389864;19;20017;-64
2023/07/20 05:42:08;;;;;;;5.32;1.90;;;23.40;1.00;;;;;;7393543;19;20014;-66
2023/07/20 05:44:39;;;;;;;6.63;2.45;;;24.30;1.00;;;;;;7393864;19;20026;-65
2023/07/20 05:47:10;;;;;;;6.13;2.40;;;25.60;1.00;;;;;;7397132;19;20014;-66
2023/07/20 05:49:43;;;;;;;9.40;2.20;;;25.70;1.00;;;;;;7392034;19;20490;-66
2023/07/20 05:52:13;;;;;;;7.38;2.20;;;25.10;1.00;;;;;;7393062;19;20082;-65
2023/07/20 05:54:42;;;;;;;4.03;1.90;;;25.40;1.00;;;;;;7393875;19;20014;-66
2023/07/20 05:57:13;;;;;;;2.83;1.60;;;25.50;1.00;;;;;;7390809;19;20404;-66
2023/07/20 05:59:44;;;;;;;6.18;2.20;;;24.70;1.00;;;;;;7387840;19;20017;-66
2023/07/20 06:02:14;;;;;;;5.40;2.33;;;25.00;1.00;;;;;;7391821;19;20503;-65
2023/07/20 06:04:46;;;;;;;3.38;1.65;;;24.10;1.00;;;;;;7392865;19;20018;-66
2023/07/20 06:07:16;;;;;;;6.03;2.08;;;23.40;1.00;;;;;;7392396;19;20366;-66
2023/07/20 06:09:46;;;;;;;4.22;2.25;;;22.60;1.00;;;;;;7390811;19;20018;-64
2023/07/20 06:12:16;;;;;;;6.68;1.90;;;22.40;1.00;;;;;;7390509;19;20088;-65
2023/07/20 06:14:46;;;;;;;6.30;1.95;;;22.80;1.00;;;;;;7392805;19;20387;-65
2023/07/20 06:17:16;;;;;;;5.85;2.00;;;24.80;1.00;;;;;;7391265;19;20035;-66
2023/07/20 06:19:48;;;;;;;4.82;1.98;;;24.90;1.00;;;;;;7388649;19;20014;-65
2023/07/20 06:22:18;;;;;;;3.33;1.60;;;25.00;1.00;;;;;;7389740;19;20026;-67
2023/07/20 06:24:48;;;;;;;3.70;1.50;;;24.60;1.00;;;;;;7392518;19;20090;-65
2023/07/20 06:27:18;;;;;;;5.55;1.67;;;25.10;1.00;;;;;;7390526;19;20045;-66
2023/07/20 06:29:48;;;;;;;3.75;1.77;;;25.40;1.00;;;;;;7391438;19;20056;-65
2023/07/20 06:32:18;;;;;;;5.53;1.83;;;24.30;1.00;;;;;;7390231;19;20010;-65
2023/07/20 06:34:51;;;;;;;2.10;1.40;;;24.90;1.00;;;;;;7390693;19;20014;-66
2023/07/20 06:37:21;;;;;;;3.85;1.60;;;24.90;1.00;;;;;;7391281;19;20019;-66
2023/07/20 06:39:51;;;;;;;4.63;1.80;;;24.60;1.00;;;;;;7389451;19;20035;-66
2023/07/20 06:42:24;;;;;;;4.25;1.90;;;24.90;1.00;;;;;;7392024;19;20014;-66
2023/07/20 06:45:00;;;;;;;4.20;1.90;;;25.00;1.00;;;;;;7395577;19;20015;-66
2023/07/20 06:47:32;;;;;;;4.05;1.63;;;25.00;1.00;;;;;;7389889;19;20034;-65
2023/07/20 06:50:05;;;;;;;3.55;1.73;;;23.70;1.00;;;;;;7389619;19;20011;-66
2023/07/20 06:52:35;;;;;;;4.03;1.70;;;22.30;1.00;;;;;;7389563;19;20017;-65
2023/07/20 06:55:06;;;;;;;4.22;1.65;;;22.20;1.00;;;;;;7391810;19;20010;-66
2023/07/20 06:57:36;;;;;;;3.60;1.83;;;22.30;1.00;;;;;;7389913;19;20343;-65
2023/07/20 07:00:07;;;;;;;4.20;2.00;;;22.20;1.00;;;;;;7388879;19;20090;-66
2023/07/20 07:02:37;;;;;;;5.57;1.70;;;22.10;1.00;;;;;;7389490;19;20011;-65
2023/07/20 07:05:10;;;;;;;7.35;1.77;;;22.50;1.00;;;;;;7391197;19;20425;-65
2023/07/20 07:07:43;;;;;;;2.75;1.50;;;21.80;1.00;;;;;;7389838;19;20038;-66
2023/07/20 07:10:13;;;;;;;3.92;1.80;;;21.90;1.00;;;;;;7386651;19;20425;-64
2023/07/20 07:12:43;;;;;;;4.53;1.63;;;21.90;1.00;;;;;;7389658;19;20566;-66
2023/07/20 07:15:13;;;;;;;4.60;1.50;;;22.00;1.00;;;;;;7389426;19;20489;-66
2023/07/20 07:17:43;;;;;;;3.30;1.77;;;21.90;1.00;;;;;;7388576;19;20015;-65
2023/07/20 07:20:16;;;;;;;5.20;1.77;;;20.90;1.00;;;;;;7387446;19;20377;-65
2023/07/20 07:22:50;;;;;;;4.70;1.98;;;21.40;1.00;;;;;;7388544;19;20363;-65
2023/07/20 07:25:20;;;;;;;3.85;2.00;;;21.60;1.00;;;;;;7391118;19;20451;-65
2023/07/20 07:27:53;;;;;;;5.28;1.98;;;21.70;1.00;;;;;;7389592;19;20086;-65
2023/07/20 07:30:23;;;;;;;8.07;1.58;;;21.30;1.00;;;;;;7388083;19;20385;-65
2023/07/20 07:32:53;;;;;;;7.93;2.03;;;21.40;1.00;;;;;;7389485;19;20038;-65
2023/07/20 07:35:27;;;;;;;3.67;2.15;;;21.80;1.00;;;;;;7390423;19;20010;-66
2023/07/20 07:37:56;;;;;;;4.53;2.28;;;22.10;1.00;;;;;;7389536;19;20092;-66
2023/07/20 07:40:32;;;;;;;4.60;1.70;;;22.60;1.00;;;;;;7385748;19;20606;-64
2023/07/20 07:43:03;;;;;;;9.43;2.00;;;22.30;1.00;;;;;;7389040;19;20038;-66
2023/07/20 07:45:35;;;;;;;4.25;1.80;;;22.60;1.00;;;;;;7390805;19;20010;-66
2023/07/20 07:48:05;;;;;;;4.20;2.05;;;22.80;1.00;;;;;;7388786;19;20026;-65
2023/07/20 07:50:38;;;;;;;4.03;1.83;;;22.20;1.00;;;;;;7387932;19;20081;-65
2023/07/20 07:53:08;;;;;;;4.47;1.70;;;22.10;1.00;;;;;;7387210;19;20487;-66
2023/07/20 07:55:38;;;;;;;7.75;1.88;;;21.60;1.00;;;;;;7390453;19;20123;-65
2023/07/20 07:58:08;;;;;;;3.13;1.58;;;22.40;1.00;;;;;;7388157;19;20019;-65
2023/07/20 08:00:38;;;;;;;4.82;1.60;;;23.10;1.00;;;;;;7385381;19;20014;-66
2023/07/20 08:03:09;;;;;;;4.13;1.95;;;23.30;1.00;;;;;;7387456;19;20018;-64
2023/07/20 08:05:41;;;;;;;3.88;1.70;;;23.20;1.00;;;;;;7389451;19;20015;-66
2023/07/20 08:08:11;;;;;;;5.93;2.22;;;22.80;1.00;;;;;;7387906;19;20435;-65
2023/07/20 08:10:41;;;;;;;10.15;1.90;;;23.10;1.00;;;;;;7387036;19;20073;-65
2023/07/20 08:13:11;;;;;;;7.82;2.17;;;23.70;1.00;;;;;;7387510;19;20006;-66
2023/07/20 08:15:42;;;;;;;3.83;1.75;;;23.00;1.00;;;;;;7389220;19;20011;-65
2023/07/20 08:18:11;;;;;;;3.67;1.90;;;22.70;1.00;;;;;;7387082;19;20014;-65
2023/07/20 08:20:46;;;;;;;5.05;1.85;;;23.40;1.00;;;;;;7386660;19;20082;-65
2023/07/20 08:23:16;;;;;;;3.85;1.80;;;23.80;1.00;;;;;;7387722;19;20791;-63
2023/07/20 08:25:46;;;;;;;4.53;1.80;;;23.20;1.00;;;;;;7389648;19;20018;-65
2023/07/20 08:28:17;;;;;;;8.25;1.67;;;21.90;1.00;;;;;;7389679;19;20093;-65
2023/07/20 08:30:49;;;;;;;7.35;2.30;;;23.30;1.00;;;;;;7386224;19;20482;-64
2023/07/20 08:33:20;;;;;;;5.40;1.73;;;22.40;1.00;;;;;;7387614;19;20088;-65
2023/07/20 08:35:53;;;;;;;3.40;1.55;;;22.50;1.00;;;;;;7389370;19;20034;-65
2023/07/20 08:38:27;;;;;;;3.33;1.60;;;22.40;1.00;;;;;;7387196;19;20042;-65
2023/07/20 08:40:59;;;;;;;5.05;1.50;;;22.40;1.00;;;;;;7385630;19;20018;-66
2023/07/20 08:43:30;;;;;;;3.15;1.52;;;22.80;1.00;;;;;;7386106;19;20119;-65
2023/07/20 08:46:02;;;;;;;2.67;1.40;;;23.60;1.00;;;;;;7388998;19;20397;-65
2023/07/20 08:48:33;;;;;;;1.85;1.40;;;23.90;1.00;;;;;;7386698;19;20043;-65
2023/07/20 08:51:07;;;;;;;3.55;1.85;;;23.20;1.00;;;;;;7385258;19;20063;-65
2023/07/20 08:53:37;;;;;;;9.57;1.77;;;22.60;1.00;;;;;;7386509;19;20089;-65
2023/07/20 08:56:07;;;;;;;4.50;1.70;;;22.60;1.00;;;;;;7389485;19;20027;-65
2023/07/20 08:58:38;;;;;;;3.95;1.55;;;23.10;1.00;;;;;;7384810;19;20014;-65
2023/07/20 09:01:09;;;;;;;4.13;1.80;;;23.40;1.00;;;;;;7381644;19;20452;-65
2023/07/20 09:03:39;;;;;;;2.85;1.45;;;24.00;1.00;;;;;;7386005;19;20018;-66
2023/07/20 09:06:12;;;;;;;3.90;1.60;;;24.00;1.00;;;;;;7392322;19;20022;-65
2023/07/20 09:08:42;;;;;;;5.85;2.60;;;23.10;1.00;;;;;;7393644;19;20023;-64
2023/07/20 09:11:15;;;;;;;3.70;2.00;;;22.70;1.00;;;;;;7390051;19;20038;-65
2023/07/20 09:13:45;;;;;;;5.45;1.60;;;23.20;1.00;;;;;;7392064;19;20019;-66
2023/07/20 09:16:17;;;;;;;4.40;1.60;;;23.80;1.00;;;;;;7396007;19;20014;-66
2023/07/20 09:18:47;;;;;;;3.85;1.63;;;23.70;1.00;;;;;;7393769;19;20014;-66
2023/07/20 09:21:21;;;;;;;2.38;1.35;;;23.40;1.00;;;;;;7391018;19;20011;-66
2023/07/20 09:23:53;;;;;;;3.10;2.00;;;23.20;1.00;;;;;;7393240;19;20054;-64
2023/07/20 09:26:23;;;;;;;2.25;1.70;;;22.60;1.00;;;;;;7396578;19;20486;-65
2023/07/20 09:28:55;;;;;;;2.75;1.70;;;22.80;1.00;;;;;;7393464;19;20092;-64
2023/07/20 09:31:25;;;;;;;3.13;1.50;;;23.30;1.00;;;;;;7391711;19;20015;-65
2023/07/20 09:34:10;;;;;;;3.85;1.40;;;23.60;1.00;;;;;;7393044;19;20026;-65
2023/07/20 09:36:42;;;;;;;3.40;1.33;;;23.20;1.00;;;;;;7397421;19;20344;-65
2023/07/20 09:39:15;;;;;;;2.45;1.20;;;23.00;1.00;;;;;;7391936;19;20019;-66
2023/07/20 09:42:04;;;;;;;1.75;1.15;;;23.00;1.00;;;;;;7390267;19;20029;-66
2023/07/20 09:44:37;;;;;;;1.75;1.10;;;23.70;1.00;;;;;;7390974;19;20018;-65
2023/07/20 09:47:10;;;;;;;2.35;1.20;;;23.60;1.00;;;;;;7396647;19;20018;-66
2023/07/20 09:49:42;;;;;;;2.47;1.63;;;24.80;1.00;;;;;;7391856;19;20014;-64
2023/07/20 09:52:19;;;;;;;2.75;1.30;;;23.50;1.00;;;;;;7392534;19;20010;-66
2023/07/20 09:54:52;;;;;;;2.90;1.30;;;23.60;1.00;;;;;;7391815;19;20331;-66
2023/07/20 09:57:24;;;;;;;2.75;1.08;;;23.80;1.00;;;;;;7392716;19;20014;-66
2023/07/20 09:59:54;;;;;;;4.13;1.02;;;23.20;1.00;;;;;;7390835;19;20014;-65
2023/07/20 10:02:32;;;;;;;1.83;1.17;;;23.40;1.00;;;;;;7389480;19;20018;-66
2023/07/20 10:05:07;;;;;;;2.67;1.10;;;23.80;1.00;;;;;;7392719;19;20014;-66
2023/07/20 10:07:46;;;;;;;2.00;1.52;;;23.30;1.00;;;;;;7389846;19;20682;-66
2023/07/20 10:10:19;;;;;;;3.15;1.40;;;24.30;1.00;;;;;;7390316;19;20044;-67
2023/07/20 10:12:52;;;;;;;2.40;1.10;;;24.00;1.00;;;;;;7390900;19;20019;-66
2023/07/20 10:15:26;;;;;;;5.63;1.50;;;23.80;1.00;;;;;;7392140;19;20018;-65
2023/07/20 10:18:03;;;;;;;2.58;1.27;;;23.30;1.00;;;;;;7391152;19;20022;-65
2023/07/20 10:20:35;;;;;;;5.63;1.25;;;23.50;1.00;;;;;;7390348;19;20078;-65
2023/07/20 10:23:08;;;;;;;3.45;1.17;;;24.00;1.00;;;;;;7391024;19;20120;-65
2023/07/20 10:25:41;;;;;;;3.92;1.40;;;23.40;1.00;;;;;;7391899;19;20015;-66
2023/07/20 10:28:13;;;;;;;2.05;1.00;;;23.60;1.00;;;;;;7388932;19;20011;-65
2023/07/20 10:30:44;;;;;;;2.28;0.90;;;24.20;1.00;;;;;;7389400;19;20018;-66
2023/07/20 10:33:15;;;;;;;3.22;1.13;;;23.60;1.00;;;;;;7390532;19;20019;-66
2023/07/20 10:35:55;;;;;;;2.45;1.00;;;23.10;1.00;;;;;;7393684;19;20042;-66
2023/07/20 10:38:44;;;;;;;2.72;1.20;;;24.00;1.00;;;;;;7391252;19;20174;-67
2023/07/20 10:41:21;;;;;;;2.33;1.10;;;24.90;1.00;;;;;;7388332;19;20018;-66
2023/07/20 10:43:51;;;;;;;2.53;1.40;;;24.80;1.00;;;;;;7393634;19;20023;-66
2023/07/20 10:46:47;;;;;;;2.42;1.00;;;24.60;1.00;;;;;;7394962;19;20035;-67
2023/07/20 10:49:21;;;;;;;2.30;1.20;;;24.40;1.00;;;;;;7390912;19;20014;-66
2023/07/20 10:51:51;;;;;;;2.30;1.40;;;24.50;1.00;;;;;;7390773;19;20022;-66
2023/07/20 10:54:49;;;;;;;2.22;1.30;;;24.40;1.00;;;;;;7389621;19;20018;-66
2023/07/20 10:57:28;;;;;;;1.45;0.90;;;25.10;1.00;;;;;;7393113;19;20085;-67
2023/07/20 11:00:14;;;;;;;2.45;1.10;;;24.20;1.00;;;;;;7393028;19;20022;-66
2023/07/20 11:02:49;;;;;;;0.82;0.80;;;24.90;1.00;;;;;;7386012;19;20458;-67
2023/07/20 11:05:35;;;;;;;4.20;1.17;;;24.20;1.00;;;;;;7389772;19;20017;-67
2023/07/20 11:08:07;;;;;;;2.65;1.00;;;24.60;1.00;;;;;;7389575;19;20816;-67
2023/07/20 11:10:40;;;;;;;3.90;0.95;;;24.80;1.00;;;;;;7388224;19;20028;-67
2023/07/20 11:13:25;;;;;;;1.58;1.00;;;24.90;1.00;;;;;;7389645;19;20045;-66
2023/07/20 11:16:05;;;;;;;;;;;24.10;1.00;;;;;;7393548;19;20010;-67
2023/07/20 11:18:39;;;;;;;6.38;1.40;;;23.70;1.00;;;;;;7390063;19;20284;-66
2023/07/20 11:21:12;;;;;;;3.65;0.98;;;24.00;1.00;;;;;;7387039;19;20018;-66
2023/07/20 11:23:42;;;;;;;1.88;0.90;;;25.00;1.00;;;;;;7389511;19;20490;-67
2023/07/20 11:26:15;;;;;;;1.52;1.05;;;24.60;1.00;;;;;;7390702;19;20019;-66
2023/07/20 11:28:45;;;;;;;1.67;1.02;;;24.50;1.00;;;;;;7389200;19;20038;-66
2023/07/20 11:31:17;;;;;;;2.83;0.90;;;24.40;1.00;;;;;;7387658;19;20014;-67
2023/07/20 11:33:48;;;;;;;1.65;0.93;;;24.60;1.00;;;;;;7389394;19;20366;-67
2023/07/20 11:36:18;;;;;;;2.65;1.00;;;24.70;1.00;;;;;;7391229;19;20011;-67
2023/07/20 11:38:50;;;;;;;3.83;1.40;;;24.90;1.00;;;;;;7388172;19;20015;-66
2023/07/20 11:41:23;;;;;;;1.38;0.90;;;25.40;1.00;;;;;;7387466;19;20011;-66
2023/07/20 11:43:53;;;;;;;1.75;1.23;;;25.30;1.00;;;;;;7388979;19;20086;-66
2023/07/20 11:46:23;;;;;;;3.58;1.30;;;25.40;1.00;;;;;;7390655;19;20939;-66
2023/07/20 11:49:00;;;;;;;1.33;0.90;;;24.80;1.00;;;;;;7390357;19;20018;-66
2023/07/20 11:51:31;;;;;;;2.72;1.23;;;25.10;1.00;;;;;;7385538;19;20018;-67
2023/07/20 11:54:01;;;;;;;5.90;1.30;;;25.10;1.00;;;;;;7388526;19;20035;-67
2023/07/20 11:56:34;;;;;;;1.67;1.20;;;25.50;1.00;;;;;;7390140;19;20049;-66
2023/07/20 11:59:04;;;;;;;2.00;0.85;;;25.50;1.00;;;;;;7388696;19;20019;-66
2023/07/20 12:01:35;;;;;;;2.55;1.80;;;25.00;1.00;;;;;;7386200;19;20014;-65
2023/07/20 12:04:06;;;;;;;2.78;1.65;;;25.30;1.00;;;;;;7387451;19;20471;-67
2023/07/20 12:06:37;;;;;;;1.70;1.25;;;25.70;1.00;;;;;;7390544;19;20014;-67
2023/07/20 12:09:06;;;;;;;1.90;1.17;;;25.30;1.00;;;;;;7388743;19;20026;-66
2023/07/20 12:11:41;;;;;;;2.50;1.17;;;25.20;1.00;;;;;;7389881;19;20031;-66
2023/07/20 12:14:11;;;;;;;2.17;1.00;;;25.10;1.00;;;;;;7389828;19;20090;-68
2023/07/20 12:16:46;;;;;;;2.00;1.20;;;25.50;1.00;;;;;;7390169;19;20053;-68
2023/07/20 12:19:16;;;;;;;2.38;0.98;;;25.00;1.00;;;;;;7391646;19;20031;-68
2023/07/20 12:21:46;;;;;;;2.33;1.10;;;25.10;1.00;;;;;;7389555;19;20014;-68
2023/07/20 12:24:16;;;;;;;1.48;0.90;;;25.00;1.00;;;;;;7390558;19;20010;-68
2023/07/20 12:26:49;;;;;;;2.17;1.02;;;25.10;1.00;;;;;;7390833;19;20011;-68
2023/07/20 12:29:19;;;;;;;1.55;0.80;;;25.30;1.00;;;;;;7387061;19;20006;-67
2023/07/20 12:31:49;;;;;;;1.77;1.20;;;25.50;1.00;;;;;;7387275;19;20030;-68
2023/07/20 12:34:19;;;;;;;1.80;1.08;;;25.30;1.00;;;;;;7384885;19;20030;-68
2023/07/20 12:36:49;;;;;;;1.48;1.00;;;26.00;1.00;;;;;;7390528;19;20003;-68
2023/07/20 12:39:19;;;;;;;1.73;1.00;;;25.80;1.00;;;;;;7389284;19;20014;-68
2023/07/20 12:41:52;;;;;;;2.78;1.00;;;25.20;1.00;;;;;;7401636;19;20010;-68
2023/07/20 12:44:22;;;;;;;3.05;1.30;;;26.10;1.00;;;;;;7400442;19;20038;-68
2023/07/20 12:46:52;;;;;;;1.98;1.20;;;26.40;1.00;;;;;;7404770;19;20018;-66
2023/07/20 12:49:22;;;;;;;2.22;1.10;;;26.00;1.00;;;;;;7404583;19;20030;-68
2023/07/20 12:51:52;;;;;;;2.22;1.20;;;25.80;1.00;;;;;;7405093;19;20020;-67
2023/07/20 12:54:21;;;;;;;2.67;1.05;;;25.70;1.00;;;;;;7400437;19;20082;-68
2023/07/20 12:56:54;;;;;;;7.32;1.40;;;25.10;1.00;;;;;;7400396;19;20011;-68
2023/07/20 12:59:27;;;;;;;1.75;1.05;;;25.10;1.00;;;;;;7396537;19;20031;-68
2023/07/20 13:01:57;;;;;;;1.70;1.00;;;24.90;1.00;;;;;;7397774;19;20027;-69
2023/07/20 13:04:30;;;;;;;2.03;1.20;;;25.20;1.00;;;;;;7394445;19;20029;-68
2023/07/20 13:07:00;;;;;;;2.30;1.00;;;25.40;1.00;;;;;;7400573;19;20031;-67
2023/07/20 13:09:50;;;;;;;1.38;0.93;;;25.30;1.00;;;;;;7397364;19;20022;-68
2023/07/20 13:12:22;;;;;;;5.03;1.10;;;25.90;1.00;;;;;;7395185;19;20014;-68
2023/07/20 13:14:52;;;;;;;1.40;1.10;;;25.40;1.00;;;;;;7395081;19;20022;-67
2023/07/20 13:17:22;;;;;;;4.05;1.35;;;25.70;1.00;;;;;;7402351;19;20494;-67
2023/07/20 13:19:53;;;;;;;2.60;1.20;;;24.80;1.00;;;;;;7397779;19;20408;-67
2023/07/20 13:22:23;;;;;;;4.60;1.20;;;25.50;1.00;;;;;;7396106;19;20355;-68